sensor_id;sensor_type;location;lat;lon;timestamp;pressure;altitude;pressure_sealevel;temperature
78669;BMP280;67984;45.118;20.724;2023-08-01T00:01:46;100078.25;;;18.30
78669;BMP280;67984;45.118;20.724;2023-08-01T00:11:47;100073.13;;;18.14
78669;BMP280;67984;45.118;20.724;2023-08-01T00:21:48;100056.88;;;17.95
78669;BMP280;67984;45.118;20.724;2023-08-01T00:31:49;100049.44;;;17.81
78669;BMP280;67984;45.118;20.724;2023-08-01T00:41:50;100045.06;;;17.65
78669;BMP280;67984;45.118;20.724;2023-08-01T00:51:50;100033.16;;;17.61
78669;BMP280;67984;45.118;20.724;2023-08-01T01:01:51;100025.47;;;17.54
78669;BMP280;67984;45.118;20.724;2023-08-01T01:11:52;100011.78;;;17.46
78669;BMP280;67984;45.118;20.724;2023-08-01T01:21:53;100007.72;;;17.33
78669;BMP280;67984;45.118;20.724;2023-08-01T01:31:55;100001.94;;;17.26
78669;BMP280;67984;45.118;20.724;2023-08-01T01:41:56;100000.88;;;17.23
78669;BMP280;67984;45.118;20.724;2023-08-01T01:51:56;100012.19;;;17.11
78669;BMP280;67984;45.118;20.724;2023-08-01T02:01:57;100012.22;;;16.99
78669;BMP280;67984;45.118;20.724;2023-08-01T02:11:58;100004.94;;;16.91
78669;BMP280;67984;45.118;20.724;2023-08-01T02:21:59;99998.94;;;16.78
78669;BMP280;67984;45.118;20.724;2023-08-01T02:31:59;99999.50;;;16.60
78669;BMP280;67984;45.118;20.724;2023-08-01T02:42:00;99993.78;;;16.49
78669;BMP280;67984;45.118;20.724;2023-08-01T02:52:01;99993.44;;;16.47
78669;BMP280;67984;45.118;20.724;2023-08-01T03:02:02;100001.78;;;16.46
78669;BMP280;67984;45.118;20.724;2023-08-01T03:12:02;99995.16;;;16.41
78669;BMP280;67984;45.118;20.724;2023-08-01T03:22:03;99993.88;;;16.34
78669;BMP280;67984;45.118;20.724;2023-08-01T03:32:04;99980.59;;;16.37
78669;BMP280;67984;45.118;20.724;2023-08-01T03:42:05;99991.66;;;16.44
78669;BMP280;67984;45.118;20.724;2023-08-01T03:52:06;99990.81;;;16.47
78669;BMP280;67984;45.118;20.724;2023-08-01T04:02:07;99993.81;;;16.62
78669;BMP280;67984;45.118;20.724;2023-08-01T04:12:08;99990.72;;;16.76
78669;BMP280;67984;45.118;20.724;2023-08-01T04:22:09;99995.38;;;16.96
78669;BMP280;67984;45.118;20.724;2023-08-01T04:32:09;99991.63;;;17.40
78669;BMP280;67984;45.118;20.724;2023-08-01T04:42:13;99991.50;;;18.68
78669;BMP280;67984;45.118;20.724;2023-08-01T04:52:13;99985.03;;;19.67
78669;BMP280;67984;45.118;20.724;2023-08-01T05:02:14;99983.34;;;19.96
78669;BMP280;67984;45.118;20.724;2023-08-01T05:12:15;99989.84;;;20.27
78669;BMP280;67984;45.118;20.724;2023-08-01T05:22:16;99974.66;;;20.60
78669;BMP280;67984;45.118;20.724;2023-08-01T05:32:16;99962.31;;;20.95
78669;BMP280;67984;45.118;20.724;2023-08-01T05:42:17;99978.75;;;21.22
78669;BMP280;67984;45.118;20.724;2023-08-01T05:52:18;99971.84;;;21.53
78669;BMP280;67984;45.118;20.724;2023-08-01T06:02:18;99962.63;;;21.83
78669;BMP280;67984;45.118;20.724;2023-08-01T06:12:19;99961.03;;;22.05
78669;BMP280;67984;45.118;20.724;2023-08-01T06:22:20;99952.16;;;22.28
78669;BMP280;67984;45.118;20.724;2023-08-01T06:32:21;99954.25;;;22.58
78669;BMP280;67984;45.118;20.724;2023-08-01T06:42:21;99956.75;;;22.92
78669;BMP280;67984;45.118;20.724;2023-08-01T06:52:22;99953.00;;;23.29
78669;BMP280;67984;45.118;20.724;2023-08-01T07:02:23;99948.16;;;23.58
78669;BMP280;67984;45.118;20.724;2023-08-01T07:12:25;99936.97;;;23.91
78669;BMP280;67984;45.118;20.724;2023-08-01T07:22:26;99936.66;;;24.30
78669;BMP280;67984;45.118;20.724;2023-08-01T07:32:27;99942.38;;;24.76
78669;BMP280;67984;45.118;20.724;2023-08-01T07:42:29;99939.75;;;25.19
78669;BMP280;67984;45.118;20.724;2023-08-01T07:52:30;99937.78;;;25.52
78669;BMP280;67984;45.118;20.724;2023-08-01T08:02:30;99943.06;;;25.79
78669;BMP280;67984;45.118;20.724;2023-08-01T08:12:32;99938.03;;;26.16
78669;BMP280;67984;45.118;20.724;2023-08-01T08:22:33;99930.56;;;26.55
78669;BMP280;67984;45.118;20.724;2023-08-01T08:32:34;99920.38;;;26.77
78669;BMP280;67984;45.118;20.724;2023-08-01T08:42:35;99907.34;;;26.97
78669;BMP280;67984;45.118;20.724;2023-08-01T08:52:36;99896.56;;;27.26
78669;BMP280;67984;45.118;20.724;2023-08-01T09:02:37;99877.59;;;27.66
78669;BMP280;67984;45.118;20.724;2023-08-01T09:12:38;99858.97;;;27.92
78669;BMP280;67984;45.118;20.724;2023-08-01T09:22:46;99841.66;;;28.24
78669;BMP280;67984;45.118;20.724;2023-08-01T09:32:56;99823.47;;;28.30
78669;BMP280;67984;45.118;20.724;2023-08-01T09:43:01;99811.13;;;28.53
78669;BMP280;67984;45.118;20.724;2023-08-01T09:53:08;99810.22;;;28.76
78669;BMP280;67984;45.118;20.724;2023-08-01T10:03:09;99793.88;;;28.87
78669;BMP280;67984;45.118;20.724;2023-08-01T10:13:13;99778.00;;;28.63
78669;BMP280;67984;45.118;20.724;2023-08-01T10:23:14;99769.63;;;28.92
78669;BMP280;67984;45.118;20.724;2023-08-01T10:33:16;99754.06;;;29.24
78669;BMP280;67984;45.118;20.724;2023-08-01T10:43:24;99742.28;;;29.47
78669;BMP280;67984;45.118;20.724;2023-08-01T10:53:25;99725.13;;;29.70
78669;BMP280;67984;45.118;20.724;2023-08-01T11:03:36;99726.00;;;29.93
78669;BMP280;67984;45.118;20.724;2023-08-01T11:13:37;99702.78;;;30.10
78669;BMP280;67984;45.118;20.724;2023-08-01T11:23:37;99696.81;;;30.04
78669;BMP280;67984;45.118;20.724;2023-08-01T11:33:38;99688.50;;;30.23
78669;BMP280;67984;45.118;20.724;2023-08-01T11:43:43;99682.78;;;30.26
78669;BMP280;67984;45.118;20.724;2023-08-01T11:53:44;99660.75;;;30.35
78669;BMP280;67984;45.118;20.724;2023-08-01T12:03:46;99645.31;;;30.43
78669;BMP280;67984;45.118;20.724;2023-08-01T12:13:48;99634.09;;;30.59
78669;BMP280;67984;45.118;20.724;2023-08-01T12:24:00;99628.94;;;30.76
78669;BMP280;67984;45.118;20.724;2023-08-01T12:34:01;99611.69;;;30.86
78669;BMP280;67984;45.118;20.724;2023-08-01T12:44:01;99610.06;;;30.98
78669;BMP280;67984;45.118;20.724;2023-08-01T12:54:03;99602.38;;;31.17
78669;BMP280;67984;45.118;20.724;2023-08-01T13:04:04;99573.56;;;31.27
78669;BMP280;67984;45.118;20.724;2023-08-01T13:14:05;99570.00;;;31.17
78669;BMP280;67984;45.118;20.724;2023-08-01T13:24:06;99550.75;;;30.98
78669;BMP280;67984;45.118;20.724;2023-08-01T13:34:06;99528.97;;;31.26
78669;BMP280;67984;45.118;20.724;2023-08-01T13:44:07;99506.69;;;31.25
78669;BMP280;67984;45.118;20.724;2023-08-01T13:54:09;99484.34;;;31.40
78669;BMP280;67984;45.118;20.724;2023-08-01T14:04:09;99473.88;;;31.44
78669;BMP280;67984;45.118;20.724;2023-08-01T14:14:10;99468.13;;;31.40
78669;BMP280;67984;45.118;20.724;2023-08-01T14:24:11;99450.56;;;31.24
78669;BMP280;67984;45.118;20.724;2023-08-01T14:34:11;99458.22;;;31.50
78669;BMP280;67984;45.118;20.724;2023-08-01T14:44:12;99453.00;;;31.52
78669;BMP280;67984;45.118;20.724;2023-08-01T14:54:13;99453.16;;;31.54
78669;BMP280;67984;45.118;20.724;2023-08-01T15:04:13;99439.28;;;31.96
78669;BMP280;67984;45.118;20.724;2023-08-01T15:14:14;99444.94;;;31.83
78669;BMP280;67984;45.118;20.724;2023-08-01T15:24:14;99436.66;;;31.81
78669;BMP280;67984;45.118;20.724;2023-08-01T15:34:15;99403.00;;;31.43
78669;BMP280;67984;45.118;20.724;2023-08-01T15:44:16;99395.22;;;31.08
78669;BMP280;67984;45.118;20.724;2023-08-01T15:54:16;99407.81;;;30.98
78669;BMP280;67984;45.118;20.724;2023-08-01T16:04:17;99407.44;;;31.02
78669;BMP280;67984;45.118;20.724;2023-08-01T16:14:18;99401.47;;;31.18
78669;BMP280;67984;45.118;20.724;2023-08-01T16:24:18;99386.63;;;30.87
78669;BMP280;67984;45.118;20.724;2023-08-01T16:34:19;99363.84;;;30.51
78669;BMP280;67984;45.118;20.724;2023-08-01T16:44:20;99354.72;;;30.25
78669;BMP280;67984;45.118;20.724;2023-08-01T16:54:21;99355.19;;;29.94
78669;BMP280;67984;45.118;20.724;2023-08-01T17:04:21;99367.81;;;29.56
78669;BMP280;67984;45.118;20.724;2023-08-01T17:14:22;99368.44;;;29.34
78669;BMP280;67984;45.118;20.724;2023-08-01T17:24:23;99364.84;;;28.97
78669;BMP280;67984;45.118;20.724;2023-08-01T17:34:24;99355.56;;;29.98
78669;BMP280;67984;45.118;20.724;2023-08-01T17:44:24;99348.00;;;28.69
78669;BMP280;67984;45.118;20.724;2023-08-01T17:54:25;99341.06;;;27.79
78669;BMP280;67984;45.118;20.724;2023-08-01T18:04:26;99334.47;;;27.21
78669;BMP280;67984;45.118;20.724;2023-08-01T18:14:27;99338.22;;;26.74
78669;BMP280;67984;45.118;20.724;2023-08-01T18:24:30;99337.19;;;26.33
78669;BMP280;67984;45.118;20.724;2023-08-01T18:34:34;99332.31;;;26.01
78669;BMP280;67984;45.118;20.724;2023-08-01T18:44:35;99347.78;;;25.71
78669;BMP280;67984;45.118;20.724;2023-08-01T18:54:36;99345.66;;;25.46
78669;BMP280;67984;45.118;20.724;2023-08-01T19:04:37;99354.09;;;25.26
78669;BMP280;67984;45.118;20.724;2023-08-01T19:14:37;99348.91;;;25.10
78669;BMP280;67984;45.118;20.724;2023-08-01T19:24:38;99342.34;;;24.87
78669;BMP280;67984;45.118;20.724;2023-08-01T19:34:39;99321.09;;;24.71
78669;BMP280;67984;45.118;20.724;2023-08-01T19:44:40;99331.00;;;24.76
78669;BMP280;67984;45.118;20.724;2023-08-01T19:54:42;99342.69;;;24.73
78669;BMP280;67984;45.118;20.724;2023-08-01T20:04:43;99342.50;;;24.65
78669;BMP280;67984;45.118;20.724;2023-08-01T20:14:43;99349.56;;;24.63
78669;BMP280;67984;45.118;20.724;2023-08-01T20:24:44;99336.25;;;24.57
78669;BMP280;67984;45.118;20.724;2023-08-01T20:34:45;99355.13;;;24.65
78669;BMP280;67984;45.118;20.724;2023-08-01T20:44:46;99353.03;;;24.82
78669;BMP280;67984;45.118;20.724;2023-08-01T20:54:47;99363.16;;;24.88
78669;BMP280;67984;45.118;20.724;2023-08-01T21:04:47;99348.47;;;24.77
78669;BMP280;67984;45.118;20.724;2023-08-01T21:14:52;99358.47;;;24.71
78669;BMP280;67984;45.118;20.724;2023-08-01T21:24:53;99360.47;;;24.65
78669;BMP280;67984;45.118;20.724;2023-08-01T21:34:55;99355.84;;;24.65
78669;BMP280;67984;45.118;20.724;2023-08-01T21:44:55;99492.16;;;24.73
78669;BMP280;67984;45.118;20.724;2023-08-01T21:54:56;99520.53;;;24.81
78669;BMP280;67984;45.118;20.724;2023-08-01T22:04:57;99489.63;;;24.96
78669;BMP280;67984;45.118;20.724;2023-08-01T22:14:58;99508.09;;;24.94
78669;BMP280;67984;45.118;20.724;2023-08-01T22:24:59;99494.31;;;24.85
78669;BMP280;67984;45.118;20.724;2023-08-01T22:34:59;99486.63;;;24.65
78669;BMP280;67984;45.118;20.724;2023-08-01T22:45:00;99498.16;;;24.33
78669;BMP280;67984;45.118;20.724;2023-08-01T22:55:04;99493.44;;;23.83
78669;BMP280;67984;45.118;20.724;2023-08-01T23:05:07;99509.91;;;23.38
78669;BMP280;67984;45.118;20.724;2023-08-01T23:15:08;99527.72;;;22.88
78669;BMP280;67984;45.118;20.724;2023-08-01T23:25:09;99567.66;;;22.41
78669;BMP280;67984;45.118;20.724;2023-08-01T23:35:09;99550.28;;;22.09
78669;BMP280;67984;45.118;20.724;2023-08-01T23:45:10;99558.47;;;21.75
78669;BMP280;67984;45.118;20.724;2023-08-01T23:55:11;99573.84;;;21.66
